Time;durP1;ratioP1;P1;durP2;ratioP2;P2;SDS_P1;SDS_P2;PMS_P1;PMS_P2;Temp;Humidity;BMP_temperature;BMP_pressure;BME280_temperature;BME280_humidity;BME280_pressure;Samples;Min_cycle;Max_cycle;Signal;HPM_P1;HPM_P2
2024/01/11 00:00:32;;;;;;;28.00;15.80;;;;;;;4.80;57.68;100601.88;1809511;79;21306;-78
2024/01/11 00:03:39;;;;;;;25.37;15.55;;;;;;;4.86;57.65;100591.84;1810604;79;21836;-84
2024/01/11 00:06:43;;;;;;;23.38;14.38;;;;;;;4.83;57.32;100599.73;1810757;79;21279;-85
2024/01/11 00:09:36;;;;;;;28.50;15.90;;;;;;;4.90;57.42;100599.23;1810010;79;21302;-85
2024/01/11 00:12:42;;;;;;;;;;;;;;;5.03;56.89;100591.72;1813271;79;21275;-85
2024/01/11 00:15:48;;;;;;;26.50;15.58;;;;;;;5.04;56.50;100592.96;1809339;79;20188;-85
2024/01/11 00:18:54;;;;;;;30.65;15.70;;;;;;;4.41;58.23;100587.16;1810606;79;22509;-78
2024/01/11 00:22:00;;;;;;;26.17;14.98;;;;;;;4.50;58.36;100583.66;1808382;79;21146;-79
2024/01/11 00:25:06;;;;;;;25.62;13.00;;;;;;;4.52;58.34;100580.34;1806857;79;21241;-86
2024/01/11 00:28:13;;;;;;;26.82;13.95;;;;;;;4.42;58.71;100572.12;1807629;79;21806;-85
2024/01/11 00:31:19;;;;;;;21.52;12.43;;;;;;;4.54;58.46;100568.38;1807098;79;21329;-79
2024/01/11 00:34:25;;;;;;;22.13;12.63;;;;;;;4.66;58.14;100561.06;1807325;79;21301;-86
2024/01/11 00:37:31;;;;;;;23.45;12.25;;;;;;;4.62;58.12;100556.89;1806291;79;21933;-86
2024/01/11 00:40:37;;;;;;;21.37;12.45;;;;;;;4.91;57.34;100551.64;1806192;79;21198;-79
2024/01/11 00:43:42;;;;;;;19.42;11.78;;;;;;;5.00;57.07;100555.41;1803869;79;21846;-85
2024/01/11 00:46:49;;;;;;;18.35;11.15;;;;;;;5.04;56.82;100555.00;1804500;79;21194;-79
2024/01/11 00:49:56;;;;;;;18.35;10.40;;;;;;;4.72;57.88;100546.11;1803956;79;21897;-84
2024/01/11 00:53:02;;;;;;;22.30;12.05;;;;;;;4.73;57.77;100551.39;1804518;79;21854;-79
2024/01/11 00:56:09;;;;;;;18.73;10.58;;;;;;;4.91;56.94;100539.95;1804919;79;21210;-85
2024/01/11 00:59:15;;;;;;;19.82;11.75;;;;;;;4.93;56.92;100538.80;1804855;79;21337;-79
2024/01/11 01:02:21;;;;;;;21.15;11.88;;;;;;;4.79;57.24;100533.73;1803607;79;21234;-84
2024/01/11 01:05:28;;;;;;;18.98;12.15;;;;;;;4.65;57.77;100524.09;1803491;79;21905;-84
2024/01/11 01:08:35;;;;;;;17.67;10.45;;;;;;;4.87;57.40;100514.45;1804246;79;21306;-85
2024/01/11 01:11:42;;;;;;;20.32;10.82;;;;;;;4.92;57.04;100510.48;1804282;79;21293;-85
2024/01/11 01:14:48;;;;;;;20.40;10.30;;;;;;;4.86;57.20;100515.45;1804196;79;21337;-85
2024/01/11 01:17:54;;;;;;;19.02;10.50;;;;;;;4.80;57.46;100516.50;1804784;79;21265;-79
2024/01/11 01:21:01;;;;;;;21.48;12.20;;;;;;;4.87;57.17;100504.97;1804788;79;21258;-80
2024/01/11 01:24:07;;;;;;;19.02;12.03;;;;;;;4.57;58.08;100492.77;1804153;79;21328;-85
2024/01/11 01:27:12;;;;;;;17.82;11.00;;;;;;;4.63;57.99;100484.09;1804696;79;21754;-79
2024/01/11 01:30:18;;;;;;;16.10;10.38;;;;;;;4.56;58.16;100478.36;1803792;79;21343;-85
2024/01/11 01:33:24;;;;;;;19.02;9.90;;;;;;;4.39;58.64;100469.98;1803570;79;21727;-85
2024/01/11 01:36:31;;;;;;;13.20;8.38;;;;;;;4.34;58.71;100465.81;1804638;79;21273;-85
2024/01/11 01:39:35;;;;;;;19.05;10.75;;;;;;;4.42;58.59;100452.94;1803371;79;21198;-79
2024/01/11 01:42:41;;;;;;;18.12;10.63;;;;;;;4.30;58.65;100446.75;1803748;79;21270;-79
2024/01/11 01:45:47;;;;;;;17.73;10.78;;;;;;;4.47;58.44;100430.88;1789938;80;21304;-79
2024/01/11 01:48:54;;;;;;;21.30;11.83;;;;;;;4.45;57.79;100419.33;1789547;80;21273;-79
2024/01/11 01:52:03;;;;;;;20.75;11.35;;;;;;;4.46;57.66;100411.55;1789835;80;21778;-85
2024/01/11 01:55:10;;;;;;;18.05;10.48;;;;;;;4.44;57.91;100406.78;1773707;80;21822;-79
2024/01/11 01:58:16;;;;;;;20.60;10.63;;;;;;;4.43;57.69;100390.17;1791266;80;21272;-81
2024/01/11 02:01:23;;;;;;;16.67;9.15;;;;;;;4.35;57.37;100379.50;1791198;80;21835;-86
2024/01/11 02:04:29;;;;;;;19.60;10.93;;;;;;;4.05;58.02;100376.78;1790554;80;21317;-80
2024/01/11 02:07:34;;;;;;;17.35;10.38;;;;;;;4.01;58.30;100369.91;1789753;80;21273;-84
2024/01/11 02:10:40;;;;;;;26.02;12.05;;;;;;;4.00;58.16;100360.94;1790632;80;21277;-80
2024/01/11 02:13:47;;;;;;;23.62;10.70;;;;;;;3.78;58.65;100359.22;1776669;80;21328;-85
2024/01/11 02:16:54;;;;;;;20.88;11.38;;;;;;;3.90;58.46;100353.73;1791328;80;21801;-79
2024/01/11 02:20:03;;;;;;;20.55;11.80;;;;;;;3.98;57.91;100339.05;1790351;80;21292;-87
2024/01/11 02:23:16;;;;;;;23.12;11.20;;;;;;;4.03;57.58;100336.79;1790478;80;21308;-79
2024/01/11 02:26:22;;;;;;;19.95;11.20;;;;;;;3.95;57.79;100327.12;1789920;80;21319;-79
2024/01/11 02:29:28;;;;;;;19.67;11.65;;;;;;;4.04;57.45;100316.84;1789809;80;21339;-79
2024/01/11 02:32:35;;;;;;;21.87;11.57;;;;;;;4.07;57.37;100322.00;1789806;80;21921;-80
2024/01/11 02:35:42;;;;;;;20.60;11.35;;;;;;;4.01;57.75;100319.84;1789609;80;21313;-86
2024/01/11 02:38:50;;;;;;;21.02;12.20;;;;;;;4.09;57.37;100313.23;1777796;80;21261;-80
2024/01/11 02:41:58;;;;;;;20.92;12.18;;;;;;;4.22;56.96;100290.86;1791339;80;21309;-82
2024/01/11 02:45:03;;;;;;;19.92;11.60;;;;;;;4.07;57.27;100289.02;1794274;78;21353;-80
2024/01/11 02:48:08;;;;;;;22.42;12.45;;;;;;;3.71;57.71;100289.52;1801504;79;21163;-81
2024/01/11 02:51:14;;;;;;;21.52;12.82;;;;;;;3.68;58.42;100277.14;1800210;79;21266;-81
2024/01/11 02:54:20;;;;;;;22.65;11.40;;;;;;;3.49;59.19;100274.31;1800113;79;21775;-80
2024/01/11 02:57:26;;;;;;;19.90;11.75;;;;;;;3.41;59.56;100268.70;1801596;79;21736;-86
2024/01/11 03:00:31;;;;;;;20.17;11.35;;;;;;;3.41;59.80;100258.73;1800383;79;21289;-80
2024/01/11 03:03:37;;;;;;;22.48;12.18;;;;;;;3.15;60.33;100255.53;1800822;79;21557;-86
2024/01/11 03:06:45;;;;;;;21.35;11.53;;;;;;;3.49;59.37;100244.56;1801780;79;21171;-80
2024/01/11 03:09:52;;;;;;;26.07;13.68;;;;;;;3.27;60.33;100240.98;1801668;79;21290;-86
2024/01/11 03:12:57;;;;;;;23.15;13.43;;;;;;;3.35;59.97;100233.58;1801502;79;21306;-80
2024/01/11 03:16:04;;;;;;;23.85;14.07;;;;;;;3.50;59.71;100229.55;1801473;79;21274;-86
2024/01/11 03:19:10;;;;;;;24.25;13.28;;;;;;;3.24;60.15;100234.48;1801348;79;21329;-86
2024/01/11 03:22:16;;;;;;;23.75;11.70;;;;;;;3.19;60.69;100235.37;1801564;79;21294;-80
2024/01/11 03:25:22;;;;;;;15.65;10.05;;;;;;;3.25;60.45;100221.35;1800419;79;21865;-81
2024/01/11 03:28:28;;;;;;;22.00;11.55;;;;;;;2.83;61.81;100220.45;1801669;79;22075;-79
2024/01/11 03:31:34;;;;;;;16.80;10.18;;;;;;;3.18;61.29;100220.14;1801634;79;21167;-79
2024/01/11 03:34:40;;;;;;;18.75;10.18;;;;;;;2.96;61.35;100210.80;1800411;79;21854;-86
2024/01/11 03:37:47;;;;;;;16.90;9.35;;;;;;;2.84;62.11;100199.20;1801653;79;21170;-84
2024/01/11 03:40:53;;;;;;;18.92;10.45;;;;;;;2.91;61.72;100203.58;1799904;79;21261;-86
2024/01/11 03:44:00;;;;;;;17.32;9.40;;;;;;;2.72;62.33;100197.02;1799999;79;21237;-79
2024/01/11 03:47:07;;;;;;;15.38;9.40;;;;;;;3.02;61.69;100196.29;1800616;79;21309;-80
2024/01/11 03:50:14;;;;;;;17.92;9.75;;;;;;;3.11;61.13;100197.85;1800594;79;21842;-80
2024/01/11 03:53:20;;;;;;;14.73;9.35;;;;;;;3.18;61.22;100194.97;1801571;79;21798;-80
2024/01/11 03:56:26;;;;;;;12.75;7.50;;;;;;;3.19;61.20;100190.77;1801056;79;21301;-86
2024/01/11 03:59:35;;;;;;;11.30;6.85;;;;;;;3.32;60.94;100184.67;1801079;79;21340;-86
2024/01/11 04:02:42;;;;;;;14.03;7.50;;;;;;;3.28;60.85;100182.37;1801516;79;21878;-86
2024/01/11 04:05:48;;;;;;;12.88;7.20;;;;;;;3.24;61.01;100164.20;1800118;79;21865;-79
2024/01/11 04:08:56;;;;;;;12.98;7.50;;;;;;;3.37;60.05;100159.09;1801676;79;21226;-79
2024/01/11 04:12:03;;;;;;;10.98;6.78;;;;;;;3.36;59.63;100154.67;1773652;79;21310;-86
2024/01/11 04:15:10;;;;;;;10.80;6.25;;;;;;;3.43;59.24;100144.52;1800399;79;21277;-86
2024/01/11 04:18:15;;;;;;;10.23;5.47;;;;;;;3.22;59.44;100128.34;1801608;79;21171;-79
2024/01/11 04:21:35;;;;;;;12.35;6.90;;;;;;;3.10;59.51;100125.34;1801606;79;22084;-87
2024/01/11 04:24:41;;;;;;;11.88;5.97;;;;;;;3.06;59.94;100124.78;1801189;79;21297;-88
2024/01/11 04:27:48;;;;;;;10.40;6.20;;;;;;;3.15;59.93;100129.00;1800787;79;21325;-81
2024/01/11 04:30:54;;;;;;;9.98;5.58;;;;;;;3.27;59.64;100134.20;1800068;79;21331;-86
2024/01/11 04:34:01;;;;;;;8.68;5.55;;;;;;;3.26;59.73;100133.85;1774189;79;21201;-86
2024/01/11 04:37:07;;;;;;;9.88;5.60;;;;;;;3.41;59.55;100128.09;1801730;79;21171;-87
2024/01/11 04:40:15;;;;;;;9.98;5.47;;;;;;;3.70;58.86;100123.66;1800647;79;21305;-80
2024/01/11 04:43:20;;;;;;;10.88;5.67;;;;;;;3.74;58.49;100127.80;1801546;79;21198;-85
2024/01/11 04:46:30;;;;;;;8.70;5.67;;;;;;;3.85;58.04;100118.71;1801704;79;21155;-80
2024/01/11 04:49:35;;;;;;;10.10;6.97;;;;;;;3.88;57.88;100113.53;1801272;79;22620;-86
2024/01/11 04:52:41;;;;;;;11.55;6.47;;;;;;;3.98;57.62;100106.30;1801756;79;21159;-80
2024/01/11 04:55:40;;;;;;;8.23;4.53;;;;;;;4.00;57.47;100096.17;1800525;79;21321;-87
2024/01/11 04:58:49;;;;;;;12.93;7.12;;;;;;;3.95;57.80;100087.15;1800491;79;21812;-81
2024/01/11 05:01:54;;;;;;;9.80;5.85;;;;;;;4.02;57.08;100075.25;1801947;79;21131;-80
2024/01/11 05:05:00;;;;;;;13.68;7.78;;;;;;;4.01;56.91;100079.81;1801777;79;21210;-80
2024/01/11 05:08:07;;;;;;;9.83;6.37;;;;;;;3.46;58.23;100070.41;1801657;79;21163;-87
2024/01/11 05:11:13;;;;;;;14.20;7.42;;;;;;;3.59;58.27;100075.94;1801740;79;21289;-87
2024/01/11 05:14:19;;;;;;;12.05;6.65;;;;;;;3.43;58.78;100072.02;1801194;79;21854;-87
2024/01/11 05:17:25;;;;;;;11.08;7.10;;;;;;;3.48;58.61;100080.10;1801621;79;21754;-80
2024/01/11 05:20:32;;;;;;;13.22;6.95;;;;;;;3.58;58.77;100072.02;1800437;79;21385;-87
2024/01/11 05:23:37;;;;;;;14.35;8.05;;;;;;;3.64;58.59;100066.05;1801555;79;21182;-80
2024/01/11 05:26:44;;;;;;;15.32;8.68;;;;;;;3.67;58.55;100068.50;1800374;79;21842;-86
2024/01/11 05:29:50;;;;;;;11.65;7.35;;;;;;;3.80;58.24;100069.07;1800880;79;21831;-79
2024/01/11 05:32:55;;;;;;;10.80;6.58;;;;;;;4.04;57.41;100066.48;1801535;79;21197;-79
2024/01/11 05:36:04;;;;;;;12.23;6.78;;;;;;;3.84;57.44;100061.04;1800601;79;21349;-79
2024/01/11 05:39:10;;;;;;;13.00;7.40;;;;;;;3.83;57.47;100056.63;1801429;79;21202;-79
2024/01/11 05:42:16;;;;;;;17.32;8.70;;;;;;;3.80;57.15;100050.13;1800976;79;21628;-86
2024/01/11 05:45:21;;;;;;;12.95;7.67;;;;;;;3.91;57.19;100043.77;1800126;79;21859;-85
2024/01/11 05:48:28;;;;;;;13.25;7.92;;;;;;;3.92;57.30;100036.00;1800035;79;21870;-80
2024/01/11 05:51:35;;;;;;;14.00;7.75;;;;;;;3.98;57.26;100027.31;1799839;79;21834;-78
2024/01/11 05:54:42;;;;;;;13.58;8.45;;;;;;;4.06;56.80;100026.62;1800465;79;21356;-85
2024/01/11 05:57:48;;;;;;;12.63;7.85;;;;;;;4.06;56.56;100017.14;1800450;79;21329;-80
2024/01/11 06:00:55;;;;;;;17.25;7.97;;;;;;;3.82;57.06;100003.52;1798984;79;21734;-79
2024/01/11 06:04:01;;;;;;;14.13;7.17;;;;;;;3.77;57.32;100005.80;1798633;79;21310;-80
2024/01/11 06:07:07;;;;;;;11.48;6.72;;;;;;;3.89;57.10;100005.66;1799201;79;21348;-86
2024/01/11 06:10:14;;;;;;;13.88;7.90;;;;;;;3.71;57.21;100000.92;1800031;79;21269;-79
2024/01/11 06:13:20;;;;;;;10.95;7.08;;;;;;;3.42;58.42;99991.90;1801062;79;21289;-79
2024/01/11 06:16:26;;;;;;;14.60;6.65;;;;;;;3.58;58.33;99989.53;1778078;79;21337;-79
2024/01/11 06:19:33;;;;;;;9.53;5.83;;;;;;;3.61;58.03;99974.36;1800089;79;22131;-86
2024/01/11 06:22:39;;;;;;;9.50;4.95;;;;;;;3.31;58.94;99973.95;1801568;79;21225;-79
2024/01/11 06:25:46;;;;;;;10.55;5.45;;;;;;;3.28;59.13;99964.75;1800290;79;21842;-79
2024/01/11 06:28:52;;;;;;;6.62;4.67;;;;;;;3.30;59.57;99950.13;1801359;79;21326;-85
2024/01/11 06:31:57;;;;;;;7.75;4.97;;;;;;;3.20;60.11;99945.66;1797331;79;21250;-85
2024/01/11 06:35:03;;;;;;;10.65;5.58;;;;;;;3.03;60.50;99939.94;1772900;81;21244;-85
2024/01/11 06:38:04;;;;;;;10.80;5.65;;;;;;;3.10;60.49;99928.06;1777010;80;21830;-78
2024/01/11 06:41:10;;;;;;;9.93;5.50;;;;;;;3.08;60.49;99920.61;1791189;80;21260;-79
2024/01/11 06:44:17;;;;;;;11.40;6.10;;;;;;;3.00;61.05;99923.13;1782008;79;21292;-85
2024/01/11 06:47:24;;;;;;;9.08;5.37;;;;;;;3.08;60.48;99912.50;1773115;80;21315;-80
2024/01/11 06:50:30;;;;;;;9.85;5.62;;;;;;;2.99;60.57;99906.06;1775032;79;21334;-80
2024/01/11 06:53:36;;;;;;;8.60;5.45;;;;;;;3.04;60.53;99904.30;1794202;79;21308;-84
2024/01/11 06:56:42;;;;;;;12.85;6.00;;;;;;;2.93;60.48;99896.32;1767246;80;21271;-85
2024/01/11 06:59:50;;;;;;;11.25;7.15;;;;;;;2.85;60.42;99894.30;1780081;80;21306;-79
2024/01/11 07:02:56;;;;;;;13.20;6.78;;;;;;;3.05;59.28;99886.59;1758990;80;21288;-85
2024/01/11 07:06:03;;;;;;;11.22;5.92;;;;;;;2.90;59.44;99875.83;1781041;80;21304;-78
2024/01/11 07:09:10;;;;;;;14.85;8.63;;;;;;;2.96;59.81;99875.77;1781867;80;21294;-82
2024/01/11 07:12:17;;;;;;;12.18;6.83;;;;;;;3.02;59.68;99869.33;1773661;80;21316;-86
2024/01/11 07:15:23;;;;;;;13.00;7.40;;;;;;;3.03;59.78;99868.83;1767753;81;21280;-86
2024/01/11 07:18:30;;;;;;;11.20;6.37;;;;;;;2.67;60.08;99853.57;1751509;81;21248;-86
2024/01/11 07:21:35;;;;;;;14.55;6.70;;;;;;;2.72;60.67;99843.20;1776330;79;21235;-80
2024/01/11 07:24:42;;;;;;;12.25;7.60;;;;;;;2.77;60.37;99839.59;1769583;79;21266;-86
2024/01/11 07:27:49;;;;;;;13.80;7.70;;;;;;;2.70;60.57;99839.80;1774889;80;21264;-86
2024/01/11 07:30:55;;;;;;;13.83;7.78;;;;;;;2.97;60.32;99837.82;1777567;80;21830;-86
2024/01/11 07:34:01;;;;;;;13.70;7.37;;;;;;;3.22;59.37;99824.27;1771278;79;21291;-80
2024/01/11 07:37:08;;;;;;;19.12;8.58;;;;;;;3.24;59.21;99816.00;1803628;79;21862;-80
2024/01/11 07:40:14;;;;;;;16.57;8.93;;;;;;;2.99;59.99;99822.31;1797837;79;21231;-85
2024/01/11 07:43:22;;;;;;;18.92;10.40;;;;;;;2.91;60.19;99823.49;1781323;79;21232;-80
2024/01/11 07:46:28;;;;;;;17.27;9.00;;;;;;;2.86;60.88;99822.21;1782467;79;21334;-86
2024/01/11 07:49:35;;;;;;;16.65;8.70;;;;;;;2.81;60.80;99814.02;1783261;79;22169;-86
2024/01/11 07:52:42;;;;;;;19.12;9.38;;;;;;;2.77;61.59;99809.89;1747310;80;21914;-81
2024/01/11 07:55:48;;;;;;;16.42;9.18;;;;;;;2.92;61.16;99802.77;1779639;79;21266;-80
2024/01/11 07:58:55;;;;;;;14.23;8.20;;;;;;;2.96;61.00;99783.91;1781568;79;22239;-79
2024/01/11 08:02:02;;;;;;;13.80;8.18;;;;;;;2.69;62.01;99779.19;1782608;79;21289;-85
2024/01/11 08:05:09;;;;;;;13.08;7.17;;;;;;;2.89;61.99;99774.67;1749566;80;21257;-85
2024/01/11 08:08:15;;;;;;;12.47;8.00;;;;;;;2.83;61.64;99767.14;1766470;80;21306;-85
2024/01/11 08:11:22;;;;;;;14.83;8.45;;;;;;;3.13;61.08;99767.00;1762774;80;21267;-81
2024/01/11 08:14:29;;;;;;;18.20;9.50;;;;;;;2.48;62.85;99756.31;1748289;81;21203;-86
2024/01/11 08:17:35;;;;;;;20.72;11.15;;;;;;;2.80;62.59;99771.80;1747211;80;21346;-79
2024/01/11 08:20:43;;;;;;;17.98;9.93;;;;;;;2.78;62.49;99757.60;1763384;80;21282;-79
2024/01/11 08:23:50;;;;;;;15.98;8.78;;;;;;;2.84;62.85;99752.62;1760873;80;21263;-78
2024/01/11 08:26:58;;;;;;;14.73;8.88;;;;;;;2.80;63.47;99742.59;1752560;81;21872;-86
2024/01/11 08:30:04;;;;;;;14.23;8.50;;;;;;;2.96;62.56;99739.33;1752307;80;21266;-79
2024/01/11 08:33:09;;;;;;;13.25;7.80;;;;;;;2.71;63.29;99738.88;1751267;80;21289;-80
2024/01/11 08:36:16;;;;;;;19.57;8.90;;;;;;;3.38;61.58;99734.47;1744029;80;21323;-80
2024/01/11 08:39:21;;;;;;;16.35;9.33;;;;;;;3.52;61.25;99735.88;1760781;80;21286;-82
2024/01/11 08:42:27;;;;;;;15.58;9.43;;;;;;;3.76;61.07;99725.92;1758788;81;21302;-85
2024/01/11 08:45:32;;;;;;;13.53;8.48;;;;;;;3.98;61.09;99722.02;1769461;80;21290;-85
2024/01/11 08:48:39;;;;;;;15.28;8.68;;;;;;;4.04;60.22;99714.64;1754999;80;21819;-85
2024/01/11 08:51:46;;;;;;;17.50;8.35;;;;;;;4.26;59.07;99701.23;1770448;80;21395;-81
2024/01/11 08:54:52;;;;;;;19.17;9.03;;;;;;;4.02;58.98;99705.83;1784311;79;21615;-86
2024/01/11 08:57:59;;;;;;;16.42;9.00;;;;;;;3.81;59.97;99704.69;1791303;79;21289;-86
2024/01/11 09:01:05;;;;;;;21.73;10.93;;;;;;;3.75;60.48;99691.26;1772321;79;21251;-79
2024/01/11 09:04:13;;;;;;;18.85;10.43;;;;;;;3.93;59.91;99683.72;1750877;80;21954;-86
2024/01/11 09:07:19;;;;;;;20.05;10.70;;;;;;;3.89;60.10;99668.78;1779281;80;21932;-85
2024/01/11 09:10:27;;;;;;;17.40;9.75;;;;;;;3.99;59.61;99670.94;1771398;79;22283;-80
2024/01/11 09:13:33;;;;;;;15.63;9.75;;;;;;;4.31;58.44;99668.63;1786737;79;21260;-83
2024/01/11 09:16:39;;;;;;;14.87;9.38;;;;;;;4.52;57.76;99657.53;1785195;79;21291;-80
2024/01/11 09:19:46;;;;;;;18.82;10.32;;;;;;;4.31;58.67;99634.78;1791888;78;21219;-86
2024/01/11 09:22:52;;;;;;;16.62;10.00;;;;;;;4.35;58.57;99626.71;1764415;79;21270;-80
2024/01/11 09:25:59;;;;;;;19.95;10.82;;;;;;;4.13;59.14;99623.08;1797418;80;21316;-87
2024/01/11 09:29:05;;;;;;;21.52;12.25;;;;;;;3.91;59.96;99623.52;1773591;80;21294;-85
2024/01/11 09:32:13;;;;;;;21.20;11.18;;;;;;;4.17;59.52;99616.36;1783057;80;21311;-87
2024/01/11 09:35:20;;;;;;;18.57;10.65;;;;;;;4.14;59.45;99601.80;1788675;78;21224;-86
2024/01/11 09:38:27;;;;;;;23.07;11.93;;;;;;;4.41;59.39;99598.16;1770355;79;21334;-81
2024/01/11 09:41:34;;;;;;;22.65;12.70;;;;;;;4.46;59.09;99594.48;1790162;78;21880;-84
2024/01/11 09:44:41;;;;;;;23.10;12.15;;;;;;;4.79;58.42;99586.14;1780412;79;21308;-81
2024/01/11 09:47:48;;;;;;;22.90;12.20;;;;;;;4.85;58.88;99585.54;1785382;79;22039;-85
2024/01/11 09:50:56;;;;;;;22.05;12.47;;;;;;;5.12;58.67;99585.88;1770767;79;21247;-85
2024/01/11 09:54:02;;;;;;;20.90;12.28;;;;;;;5.04;57.63;99557.89;1789171;79;21272;-85
2024/01/11 09:57:08;;;;;;;26.42;13.53;;;;;;;5.04;57.54;99551.13;1791193;79;21370;-83
2024/01/11 10:00:16;;;;;;;24.37;13.78;;;;;;;5.08;57.54;99551.12;1782800;79;21330;-81
2024/01/11 10:03:26;;;;;;;23.87;13.10;;;;;;;4.79;57.55;99539.23;1786521;79;21805;-81
2024/01/11 10:06:39;;;;;;;24.98;13.40;;;;;;;4.78;58.00;99547.88;1760818;80;21303;-85
2024/01/11 10:09:46;;;;;;;22.77;13.75;;;;;;;4.84;57.63;99533.68;1787611;79;21299;-85
2024/01/11 10:12:55;;;;;;;18.60;11.15;;;;;;;4.85;58.66;99527.28;1779198;79;21327;-86
2024/01/11 10:16:00;;;;;;;21.25;12.30;;;;;;;4.83;59.58;99513.53;1767022;80;21859;-81
2024/01/11 10:19:07;;;;;;;22.45;12.63;;;;;;;4.96;57.76;99502.27;1798979;79;21338;-81
2024/01/11 10:22:24;;;;;;;20.80;11.38;;;;;;;4.86;57.64;99510.00;1779020;80;21294;-84
2024/01/11 10:25:30;;;;;;;21.77;11.43;;;;;;;4.93;57.93;99509.36;1776713;80;21331;-81
2024/01/11 10:28:41;;;;;;;21.52;13.62;;;;;;;4.84;58.07;99507.94;1774157;80;21260;-81
2024/01/11 10:31:43;;;;;;;23.45;13.05;;;;;;;4.76;58.73;99506.55;1720549;80;21905;-81
2024/01/11 10:34:42;;;;;;;24.40;14.70;;;;;;;5.09;57.45;99513.03;1774312;79;21855;-85
2024/01/11 10:37:48;;;;;;;28.00;15.23;;;;;;;5.18;56.95;99502.23;1780472;79;21236;-84
2024/01/11 10:40:55;;;;;;;29.00;15.65;;;;;;;5.16;56.96;99498.31;1769859;81;21323;-83
2024/01/11 10:44:03;;;;;;;28.20;15.28;;;;;;;5.17;57.25;99496.45;1769863;80;21300;-83
2024/01/11 10:47:11;;;;;;;28.55;16.15;;;;;;;5.40;56.90;99493.52;1771237;79;21292;-83
2024/01/11 10:50:18;;;;;;;30.02;15.75;;;;;;;5.56;56.60;99492.23;1781367;79;21298;-83
2024/01/11 10:53:54;;;;;;;35.28;18.37;;;;;;;5.82;55.73;99476.36;1817362;79;21180;-81
2024/01/11 10:57:04;;;;;;;36.08;17.55;;;;;;;5.49;56.09;99464.05;1754158;79;21282;-81
2024/01/11 11:00:12;;;;;;;33.90;18.05;;;;;;;5.35;56.45;99462.81;1760604;79;21270;-81
2024/01/11 11:03:19;;;;;;;30.65;18.20;;;;;;;5.37;56.56;99460.80;1777513;80;21291;-81
2024/01/11 11:06:26;;;;;;;33.23;17.65;;;;;;;5.32;56.62;99441.47;1768660;80;21222;-83
2024/01/11 11:09:33;;;;;;;34.58;17.87;;;;;;;5.54;55.92;99431.00;1761679;80;21278;-84
2024/01/11 11:12:41;;;;;;;30.57;16.50;;;;;;;5.26;56.49;99426.34;1751048;82;21338;-82
2024/01/11 11:15:50;;;;;;;30.02;16.87;;;;;;;5.17;56.48;99422.73;1758654;80;21314;-84
2024/01/11 11:19:00;;;;;;;25.57;13.20;;;;;;;5.07;57.80;99418.80;1779011;80;21854;-84
2024/01/11 11:22:07;;;;;;;30.12;18.70;;;;;;;5.49;57.35;99418.45;1738302;80;21827;-80
2024/01/11 11:25:18;;;;;;;32.00;17.25;;;;;;;5.75;57.26;99414.28;1743448;82;21309;-84
2024/01/11 11:28:24;;;;;;;;;;;;;;;5.74;57.38;99395.80;1752331;82;21676;-84
2024/01/11 11:31:47;;;;;;;27.35;16.30;;;;;;;5.63;56.97;99388.80;1768398;80;20302;-84
2024/01/11 11:34:53;;;;;;;33.45;18.48;;;;;;;5.72;56.40;99381.53;1710460;82;21176;-83
2024/01/11 11:38:05;;;;;;;34.98;18.80;;;;;;;5.47;56.33;99376.58;1712217;80;21247;-84
2024/01/11 11:41:12;;;;;;;29.52;16.05;;;;;;;5.39;56.76;99363.84;1759377;81;21871;-80
2024/01/11 11:44:20;;;;;;;32.23;18.20;;;;;;;5.10;57.46;99358.86;1763326;78;21325;-83
2024/01/11 11:47:30;;;;;;;30.15;17.20;;;;;;;4.98;57.97;99353.89;1771404;80;21876;-82
2024/01/11 11:50:38;;;;;;;31.62;17.02;;;;;;;5.11;56.43;99348.34;1758896;80;21274;-80
2024/01/11 11:53:47;;;;;;;29.23;15.75;;;;;;;5.08;56.80;99338.33;1764722;81;21270;-83
2024/01/11 11:56:54;;;;;;;25.23;15.43;;;;;;;4.91;57.04;99331.19;1753737;79;21872;-80
2024/01/11 12:00:07;;;;;;;26.30;16.02;;;;;;;4.78;57.29;99328.41;1824697;77;21272;-80
2024/01/11 12:03:13;;;;;;;32.28;17.10;;;;;;;4.72;57.55;99322.81;1816354;79;21295;-79
2024/01/11 12:06:20;;;;;;;28.92;16.70;;;;;;;4.82;57.37;99334.36;1797183;77;21534;-79
2024/01/11 12:09:28;;;;;;;31.70;16.60;;;;;;;4.89;57.40;99347.58;1766898;80;21348;-82
2024/01/11 12:12:35;;;;;;;34.27;17.45;;;;;;;5.09;57.27;99352.25;1781718;79;21892;-81
2024/01/11 12:15:42;;;;;;;27.80;17.02;;;;;;;5.17;57.17;99356.32;1793523;79;21891;-83
2024/01/11 12:18:48;;;;;;;29.52;18.62;;;;;;;5.20;57.00;99361.94;1776251;80;21634;-82
2024/01/11 12:21:55;;;;;;;26.62;15.58;;;;;;;5.15;57.22;99363.78;1779991;79;21287;-82
2024/01/11 12:25:03;;;;;;;31.70;17.50;;;;;;;5.00;57.76;99365.43;1792725;79;21901;-82
2024/01/11 12:28:10;;;;;;;25.65;15.88;;;;;;;5.26;56.88;99363.47;1788804;79;21799;-84
2024/01/11 12:31:19;;;;;;;34.35;18.35;;;;;;;5.20;56.58;99366.84;1774514;79;21268;-80
2024/01/11 12:34:26;;;;;;;31.82;18.60;;;;;;;5.03;56.69;99363.73;1785445;79;21614;-83
2024/01/11 12:37:33;;;;;;;34.18;19.35;;;;;;;4.94;56.84;99359.28;1792364;77;21259;-83
2024/01/11 12:40:43;;;;;;;38.25;20.75;;;;;;;5.01;56.19;99351.70;1774005;77;21314;-80
2024/01/11 12:43:49;;;;;;;35.60;20.25;;;;;;;4.91;56.56;99341.52;1777384;80;21280;-83
2024/01/11 12:46:56;;;;;;;37.73;20.75;;;;;;;4.48;57.81;99345.20;1757980;79;21807;-81
2024/01/11 12:50:03;;;;;;;35.30;19.70;;;;;;;4.68;57.58;99338.53;1795737;79;21728;-85
2024/01/11 12:53:23;;;;;;;38.83;21.02;;;;;;;4.92;56.86;99339.14;1774506;79;21300;-81
2024/01/11 12:56:29;;;;;;;40.35;19.73;;;;;;;4.86;56.92;99337.94;1759597;80;21292;-81
2024/01/11 12:59:36;;;;;;;41.58;22.25;;;;;;;4.68;57.27;99330.91;1770959;80;21336;-82
2024/01/11 13:02:47;;;;;;;42.03;22.82;;;;;;;4.41;58.89;99332.80;1780473;80;21287;-81
2024/01/11 13:05:53;;;;;;;42.40;22.45;;;;;;;4.41;58.62;99326.54;1775011;80;21326;-81
2024/01/11 13:08:59;;;;;;;43.35;21.90;;;;;;;4.72;57.64;99322.81;1769421;78;21287;-82
2024/01/11 13:12:07;;;;;;;43.42;23.15;;;;;;;4.70;57.90;99313.47;1756845;80;21274;-84
2024/01/11 13:15:14;;;;;;;35.03;20.23;;;;;;;4.74;57.78;99317.55;1755767;80;21297;-81
2024/01/11 13:18:20;;;;;;;43.65;23.40;;;;;;;4.77;57.74;99300.98;1765676;80;21859;-81
2024/01/11 13:21:28;;;;;;;40.65;22.50;;;;;;;4.86;57.30;99295.09;1756755;80;21361;-83
2024/01/11 13:24:34;;;;;;;41.63;23.47;;;;;;;4.68;57.51;99287.06;1763867;80;21316;-81
2024/01/11 13:27:41;;;;;;;39.08;21.27;;;;;;;4.73;57.16;99279.30;1780080;80;21325;-81
2024/01/11 13:30:51;;;;;;;50.83;24.40;;;;;;;4.77;56.92;99272.53;1755803;80;21903;-81
2024/01/11 13:33:58;;;;;;;37.93;21.48;;;;;;;4.73;57.11;99276.58;1755623;80;21317;-82
2024/01/11 13:37:04;;;;;;;42.50;21.87;;;;;;;4.72;57.10;99273.54;1770659;79;21879;-82
2024/01/11 13:40:13;;;;;;;42.13;23.27;;;;;;;4.73;56.79;99267.61;1760078;79;21314;-82
2024/01/11 13:43:39;;;;;;;46.40;21.17;;;;;;;4.61;57.07;99268.40;1698311;81;21127;-81
2024/01/11 13:46:32;;;;;;;41.10;22.40;;;;;;;4.30;58.05;99266.76;1739632;82;21286;-80
2024/01/11 13:49:38;;;;;;;38.08;20.50;;;;;;;4.16;58.33;99266.85;1733654;82;21723;-81
2024/01/11 13:52:47;;;;;;;45.80;22.27;;;;;;;4.29;58.29;99263.20;1738621;80;21313;-80
2024/01/11 13:55:55;;;;;;;38.73;20.12;;;;;;;4.40;58.07;99261.22;1736013;80;21317;-82
2024/01/11 13:59:02;;;;;;;42.15;21.30;;;;;;;4.44;57.86;99245.00;1753653;80;21306;-82
2024/01/11 14:02:09;;;;;;;42.15;19.87;;;;;;;4.60;57.62;99243.69;1764049;80;21931;-81
2024/01/11 14:05:17;;;;;;;36.50;20.17;;;;;;;4.67;57.52;99242.55;1765861;80;21374;-81
2024/01/11 14:08:25;;;;;;;39.70;19.67;;;;;;;4.47;58.27;99232.46;1772836;80;21354;-82
2024/01/11 14:11:31;;;;;;;45.50;22.20;;;;;;;4.49;58.46;99242.64;1768092;81;21950;-82
2024/01/11 14:14:37;;;;;;;35.65;19.77;;;;;;;4.70;57.75;99237.63;1769003;81;21327;-81
2024/01/11 14:17:44;;;;;;;39.30;22.02;;;;;;;4.52;58.06;99239.11;1752815;80;21911;-81
2024/01/11 14:20:51;;;;;;;34.83;18.87;;;;;;;4.16;59.26;99234.38;1755414;80;21272;-82
2024/01/11 14:23:57;;;;;;;31.68;18.05;;;;;;;4.20;59.38;99233.55;1750838;80;21370;-83
2024/01/11 14:27:03;;;;;;;34.00;18.55;;;;;;;3.94;59.67;99222.23;1755049;80;21316;-81
2024/01/11 14:30:10;;;;;;;39.75;21.00;;;;;;;4.18;59.48;99223.37;1757350;80;21320;-82